sensor_id;sensor_type;location;lat;lon;timestamp;temperature;humidity
19224;DHT22;9746;47.180;9.776;2023-02-01T11:18:17;5.30;99.90
19224;DHT22;9746;47.180;9.776;2023-02-01T11:20:47;5.50;99.90
19224;DHT22;9746;47.180;9.776;2023-02-01T11:23:46;5.50;99.90
19224;DHT22;9746;47.180;9.776;2023-02-01T11:26:23;5.60;99.90
19224;DHT22;9746;47.180;9.776;2023-02-01T11:29:11;5.60;99.90
19224;DHT22;9746;47.180;9.776;2023-02-01T11:31:39;5.60;99.90
19224;DHT22;9746;47.180;9.776;2023-02-01T11:34:14;5.60;99.90
19224;DHT22;9746;47.180;9.776;2023-02-01T11:36:45;5.70;99.90
19224;DHT22;9746;47.180;9.776;2023-02-01T11:39:24;5.80;99.90
19224;DHT22;9746;47.180;9.776;2023-02-01T11:42:15;5.90;99.90
19224;DHT22;9746;47.180;9.776;2023-02-01T11:44:44;6.00;99.90
19224;DHT22;9746;47.180;9.776;2023-02-01T11:47:24;6.10;99.90
19224;DHT22;9746;47.180;9.776;2023-02-01T11:49:55;6.40;99.90
19224;DHT22;9746;47.180;9.776;2023-02-01T11:55:42;6.80;99.90
19224;DHT22;9746;47.180;9.776;2023-02-01T11:58:22;7.20;99.90
19224;DHT22;9746;47.180;9.776;2023-02-01T12:01:03;7.40;99.90
19224;DHT22;9746;47.180;9.776;2023-02-01T12:07:00;8.10;99.90
19224;DHT22;9746;47.180;9.776;2023-02-01T12:09:50;8.90;99.90
19224;DHT22;9746;47.180;9.776;2023-02-01T12:15:57;11.10;99.90
19224;DHT22;9746;47.180;9.776;2023-02-01T12:22:07;13.20;99.90
19224;DHT22;9746;47.180;9.776;2023-02-01T12:31:23;15.40;99.90
19224;DHT22;9746;47.180;9.776;2023-02-01T12:34:07;16.00;99.90
19224;DHT22;9746;47.180;9.776;2023-02-01T12:36:46;16.50;99.90
19224;DHT22;9746;47.180;9.776;2023-02-01T12:48:59;16.50;99.90
19224;DHT22;9746;47.180;9.776;2023-02-01T12:51:29;16.20;99.90
19224;DHT22;9746;47.180;9.776;2023-02-01T12:54:35;15.50;99.90
19224;DHT22;9746;47.180;9.776;2023-02-01T12:57:10;15.10;99.90
19224;DHT22;9746;47.180;9.776;2023-02-01T12:59:42;14.40;99.90
19224;DHT22;9746;47.180;9.776;2023-02-01T13:02:16;14.20;99.90
19224;DHT22;9746;47.180;9.776;2023-02-01T13:04:58;13.90;99.90
19224;DHT22;9746;47.180;9.776;2023-02-01T13:07:34;13.40;99.90
19224;DHT22;9746;47.180;9.776;2023-02-01T13:10:12;13.40;99.90
19224;DHT22;9746;47.180;9.776;2023-02-01T13:12:53;13.40;99.90
19224;DHT22;9746;47.180;9.776;2023-02-01T13:15:25;13.20;99.90
19224;DHT22;9746;47.180;9.776;2023-02-01T13:21:06;12.60;99.90
19224;DHT22;9746;47.180;9.776;2023-02-01T13:23:50;12.30;99.90
19224;DHT22;9746;47.180;9.776;2023-02-01T13:26:19;11.30;99.90
19224;DHT22;9746;47.180;9.776;2023-02-01T13:28:58;11.30;99.90
19224;DHT22;9746;47.180;9.776;2023-02-01T13:31:42;11.20;99.90
19224;DHT22;9746;47.180;9.776;2023-02-01T13:38:03;11.00;99.90
19224;DHT22;9746;47.180;9.776;2023-02-01T13:40:39;11.00;99.90
19224;DHT22;9746;47.180;9.776;2023-02-01T13:43:24;10.70;99.90
19224;DHT22;9746;47.180;9.776;2023-02-01T13:45:55;10.50;99.90
19224;DHT22;9746;47.180;9.776;2023-02-01T13:48:29;10.20;99.90
19224;DHT22;9746;47.180;9.776;2023-02-01T13:51:30;10.20;99.90
19224;DHT22;9746;47.180;9.776;2023-02-01T13:54:02;10.10;99.90
19224;DHT22;9746;47.180;9.776;2023-02-01T13:56:40;10.10;99.90
19224;DHT22;9746;47.180;9.776;2023-02-01T14:05:54;9.90;99.90
19224;DHT22;9746;47.180;9.776;2023-02-01T14:08:37;9.80;99.90
19224;DHT22;9746;47.180;9.776;2023-02-01T14:11:07;9.70;99.90
19224;DHT22;9746;47.180;9.776;2023-02-01T14:23:17;9.20;99.90
19224;DHT22;9746;47.180;9.776;2023-02-01T14:26:01;9.20;99.90
19224;DHT22;9746;47.180;9.776;2023-02-01T14:28:54;9.20;99.90
19224;DHT22;9746;47.180;9.776;2023-02-01T14:31:42;9.30;99.90
19224;DHT22;9746;47.180;9.776;2023-02-01T14:37:24;9.10;99.90
19224;DHT22;9746;47.180;9.776;2023-02-01T14:43:14;9.00;99.90
19224;DHT22;9746;47.180;9.776;2023-02-01T14:45:50;8.90;99.90
19224;DHT22;9746;47.180;9.776;2023-02-01T14:51:40;8.80;99.90
19224;DHT22;9746;47.180;9.776;2023-02-01T14:57:30;8.70;99.90
19224;DHT22;9746;47.180;9.776;2023-02-01T15:03:38;8.60;99.90
19224;DHT22;9746;47.180;9.776;2023-02-01T15:06:23;8.20;99.90
19224;DHT22;9746;47.180;9.776;2023-02-01T15:12:16;7.90;99.90
19224;DHT22;9746;47.180;9.776;2023-02-01T15:18:16;7.90;99.90
19224;DHT22;9746;47.180;9.776;2023-02-01T15:20:56;7.90;99.90
19224;DHT22;9746;47.180;9.776;2023-02-01T15:26:46;7.80;99.90
19224;DHT22;9746;47.180;9.776;2023-02-01T15:29:37;7.70;99.90
19224;DHT22;9746;47.180;9.776;2023-02-01T15:32:04;7.60;99.90
19224;DHT22;9746;47.180;9.776;2023-02-01T15:38:29;7.40;99.90
19224;DHT22;9746;47.180;9.776;2023-02-01T15:40:59;7.50;99.90
19224;DHT22;9746;47.180;9.776;2023-02-01T15:43:29;7.50;99.90
19224;DHT22;9746;47.180;9.776;2023-02-01T15:45:59;7.50;99.90
19224;DHT22;9746;47.180;9.776;2023-02-01T15:48:36;7.40;99.90
19224;DHT22;9746;47.180;9.776;2023-02-01T15:51:05;7.40;99.90
19224;DHT22;9746;47.180;9.776;2023-02-01T15:53:34;7.40;99.90
19224;DHT22;9746;47.180;9.776;2023-02-01T15:56:04;7.30;99.90
19224;DHT22;9746;47.180;9.776;2023-02-01T15:58:32;7.20;99.90
19224;DHT22;9746;47.180;9.776;2023-02-01T16:01:02;7.20;99.90
19224;DHT22;9746;47.180;9.776;2023-02-01T16:03:35;7.10;99.90
19224;DHT22;9746;47.180;9.776;2023-02-01T16:06:05;7.00;99.90
19224;DHT22;9746;47.180;9.776;2023-02-01T16:11:58;6.80;99.90
19224;DHT22;9746;47.180;9.776;2023-02-01T16:17:49;6.60;99.90
19224;DHT22;9746;47.180;9.776;2023-02-01T16:20:42;6.60;99.90
19224;DHT22;9746;47.180;9.776;2023-02-01T16:23:10;6.50;99.90
19224;DHT22;9746;47.180;9.776;2023-02-01T16:25:45;6.40;99.90
19224;DHT22;9746;47.180;9.776;2023-02-01T16:28:14;6.30;99.90
19224;DHT22;9746;47.180;9.776;2023-02-01T16:30:45;6.30;99.90
19224;DHT22;9746;47.180;9.776;2023-02-01T16:33:17;6.20;99.90
19224;DHT22;9746;47.180;9.776;2023-02-01T16:39:11;6.20;99.90
19224;DHT22;9746;47.180;9.776;2023-02-01T16:41:39;6.20;99.90
19224;DHT22;9746;47.180;9.776;2023-02-01T16:47:30;6.10;99.90
19224;DHT22;9746;47.180;9.776;2023-02-01T16:53:20;6.10;99.90
19224;DHT22;9746;47.180;9.776;2023-02-01T16:56:07;6.10;99.90
19224;DHT22;9746;47.180;9.776;2023-02-01T16:58:36;6.10;99.90
19224;DHT22;9746;47.180;9.776;2023-02-01T17:07:47;6.10;99.90
19224;DHT22;9746;47.180;9.776;2023-02-01T17:13:37;6.10;99.90
19224;DHT22;9746;47.180;9.776;2023-02-01T17:22:56;6.10;99.90
19224;DHT22;9746;47.180;9.776;2023-02-01T17:28:45;6.00;99.90
19224;DHT22;9746;47.180;9.776;2023-02-01T17:34:35;5.80;99.90
19224;DHT22;9746;47.180;9.776;2023-02-01T17:37:05;5.70;99.90
19224;DHT22;9746;47.180;9.776;2023-02-01T17:42:59;5.70;99.90
19224;DHT22;9746;47.180;9.776;2023-02-01T17:48:49;5.70;99.90
19224;DHT22;9746;47.180;9.776;2023-02-01T17:54:38;5.70;99.90
19224;DHT22;9746;47.180;9.776;2023-02-01T17:57:10;5.70;99.90
19224;DHT22;9746;47.180;9.776;2023-02-01T18:03:01;5.70;99.90
19224;DHT22;9746;47.180;9.776;2023-02-01T18:08:50;5.60;99.90
19224;DHT22;9746;47.180;9.776;2023-02-01T18:14:40;5.50;99.90
19224;DHT22;9746;47.180;9.776;2023-02-01T18:17:07;5.50;99.90
19224;DHT22;9746;47.180;9.776;2023-02-01T18:22:49;5.50;99.90
19224;DHT22;9746;47.180;9.776;2023-02-01T18:25:20;5.60;99.90
19224;DHT22;9746;47.180;9.776;2023-02-01T18:27:48;5.60;99.90
19224;DHT22;9746;47.180;9.776;2023-02-01T18:30:28;5.70;99.90
19224;DHT22;9746;47.180;9.776;2023-02-01T18:32:56;5.70;99.90
19224;DHT22;9746;47.180;9.776;2023-02-01T18:38:47;5.80;99.90
19224;DHT22;9746;47.180;9.776;2023-02-01T18:44:37;5.80;99.90
19224;DHT22;9746;47.180;9.776;2023-02-01T18:47:04;5.80;99.90
19224;DHT22;9746;47.180;9.776;2023-02-01T18:49:33;5.70;99.90
19224;DHT22;9746;47.180;9.776;2023-02-01T18:52:01;5.70;99.90
19224;DHT22;9746;47.180;9.776;2023-02-01T18:54:29;5.60;99.90
19224;DHT22;9746;47.180;9.776;2023-02-01T19:00:20;5.70;99.90
19224;DHT22;9746;47.180;9.776;2023-02-01T19:02:48;5.70;99.90
19224;DHT22;9746;47.180;9.776;2023-02-01T19:05:19;5.70;99.90
19224;DHT22;9746;47.180;9.776;2023-02-01T19:07:47;5.70;99.90
19224;DHT22;9746;47.180;9.776;2023-02-01T19:10:18;5.70;99.90
19224;DHT22;9746;47.180;9.776;2023-02-01T19:12:47;5.70;99.90
19224;DHT22;9746;47.180;9.776;2023-02-01T19:15:26;5.60;99.90
19224;DHT22;9746;47.180;9.776;2023-02-01T19:17:54;5.60;99.90
19224;DHT22;9746;47.180;9.776;2023-02-01T19:23:43;5.60;99.90
19224;DHT22;9746;47.180;9.776;2023-02-01T19:26:23;5.70;99.90
19224;DHT22;9746;47.180;9.776;2023-02-01T19:28:50;5.70;99.90
19224;DHT22;9746;47.180;9.776;2023-02-01T19:31:17;5.70;99.90
19224;DHT22;9746;47.180;9.776;2023-02-01T19:33:45;5.70;99.90
19224;DHT22;9746;47.180;9.776;2023-02-01T19:36:18;5.60;99.90
19224;DHT22;9746;47.180;9.776;2023-02-01T19:38:45;5.60;99.90
19224;DHT22;9746;47.180;9.776;2023-02-01T19:41:19;5.60;99.90
19224;DHT22;9746;47.180;9.776;2023-02-01T19:43:48;5.60;99.90
19224;DHT22;9746;47.180;9.776;2023-02-01T19:46:24;5.60;99.90
19224;DHT22;9746;47.180;9.776;2023-02-01T19:49:00;5.60;99.90
19224;DHT22;9746;47.180;9.776;2023-02-01T19:51:35;5.60;99.90
19224;DHT22;9746;47.180;9.776;2023-02-01T19:54:09;5.60;99.90
19224;DHT22;9746;47.180;9.776;2023-02-01T19:57:12;5.60;99.90
19224;DHT22;9746;47.180;9.776;2023-02-01T19:59:41;5.60;99.90
19224;DHT22;9746;47.180;9.776;2023-02-01T20:02:22;5.60;99.90
19224;DHT22;9746;47.180;9.776;2023-02-01T20:04:53;5.60;99.90
19224;DHT22;9746;47.180;9.776;2023-02-01T20:07:25;5.60;99.90
19224;DHT22;9746;47.180;9.776;2023-02-01T20:09:52;5.70;99.90
19224;DHT22;9746;47.180;9.776;2023-02-01T20:12:19;5.60;99.90
19224;DHT22;9746;47.180;9.776;2023-02-01T20:14:49;5.60;99.90
19224;DHT22;9746;47.180;9.776;2023-02-01T20:17:26;5.60;99.90
19224;DHT22;9746;47.180;9.776;2023-02-01T20:19:54;5.60;99.90
19224;DHT22;9746;47.180;9.776;2023-02-01T20:22:23;5.60;99.90
19224;DHT22;9746;47.180;9.776;2023-02-01T20:24:55;5.60;99.90
19224;DHT22;9746;47.180;9.776;2023-02-01T20:27:28;5.60;99.90
19224;DHT22;9746;47.180;9.776;2023-02-01T20:29:57;5.60;99.90
19224;DHT22;9746;47.180;9.776;2023-02-01T20:32:30;5.50;99.90
19224;DHT22;9746;47.180;9.776;2023-02-01T20:34:57;5.60;99.90
19224;DHT22;9746;47.180;9.776;2023-02-01T20:37:24;5.60;99.90
